sensor_id;sensor_type;location;lat;lon;timestamp;noise_LAeq;noise_LA_min;noise_LA_max;noise_LA01;noise_LA95
70454;Laerm;57915;47.174;14.680;2023-07-20T00:00:41;56.29;38.69;66.52;;
70454;Laerm;57915;47.174;14.680;2023-07-20T00:01:43;40.46;38.06;43.30;;
70454;Laerm;57915;47.174;14.680;2023-07-20T00:02:44;42.68;39.84;48.00;;
70454;Laerm;57915;47.174;14.680;2023-07-20T00:03:46;45.40;39.08;51.82;;
70454;Laerm;57915;47.174;14.680;2023-07-20T00:04:54;53.69;39.73;65.70;;
70454;Laerm;57915;47.174;14.680;2023-07-20T00:05:56;41.16;38.06;43.51;;
70454;Laerm;57915;47.174;14.680;2023-07-20T00:06:56;42.56;39.11;57.38;;
70454;Laerm;57915;47.174;14.680;2023-07-20T00:07:57;56.46;38.88;70.03;;
70454;Laerm;57915;47.174;14.680;2023-07-20T00:08:58;42.01;37.75;46.22;;
70454;Laerm;57915;47.174;14.680;2023-07-20T00:10:01;42.72;39.14;47.47;;
70454;Laerm;57915;47.174;14.680;2023-07-20T00:11:01;41.19;37.22;46.86;;
70454;Laerm;57915;47.174;14.680;2023-07-20T00:12:03;41.83;38.69;50.71;;
70454;Laerm;57915;47.174;14.680;2023-07-20T00:13:03;43.56;39.32;47.57;;
70454;Laerm;57915;47.174;14.680;2023-07-20T00:14:05;41.00;38.22;45.85;;
70454;Laerm;57915;47.174;14.680;2023-07-20T00:15:06;43.56;38.76;48.35;;
70454;Laerm;57915;47.174;14.680;2023-07-20T00:16:07;47.54;43.73;53.34;;
70454;Laerm;57915;47.174;14.680;2023-07-20T00:17:08;43.08;39.21;48.43;;
70454;Laerm;57915;47.174;14.680;2023-07-20T00:18:09;44.19;39.82;50.83;;
70454;Laerm;57915;47.174;14.680;2023-07-20T00:19:10;43.85;39.23;51.25;;
70454;Laerm;57915;47.174;14.680;2023-07-20T00:20:11;40.80;38.18;43.12;;
70454;Laerm;57915;47.174;14.680;2023-07-20T00:21:12;41.55;37.62;45.84;;
70454;Laerm;57915;47.174;14.680;2023-07-20T00:22:13;41.92;39.03;45.41;;
70454;Laerm;57915;47.174;14.680;2023-07-20T00:23:14;41.00;37.81;44.75;;
70454;Laerm;57915;47.174;14.680;2023-07-20T00:24:14;40.58;37.70;43.59;;
70454;Laerm;57915;47.174;14.680;2023-07-20T00:25:17;47.79;38.86;60.95;;
70454;Laerm;57915;47.174;14.680;2023-07-20T00:26:18;42.36;38.47;48.40;;
70454;Laerm;57915;47.174;14.680;2023-07-20T00:27:19;40.92;37.25;47.47;;
70454;Laerm;57915;47.174;14.680;2023-07-20T00:28:19;41.01;38.12;44.17;;
70454;Laerm;57915;47.174;14.680;2023-07-20T00:29:21;39.79;37.14;44.14;;
70454;Laerm;57915;47.174;14.680;2023-07-20T00:30:21;40.70;38.12;46.26;;
70454;Laerm;57915;47.174;14.680;2023-07-20T00:31:22;42.46;39.31;45.79;;
70454;Laerm;57915;47.174;14.680;2023-07-20T00:32:23;42.55;38.94;46.09;;
70454;Laerm;57915;47.174;14.680;2023-07-20T00:33:24;41.32;38.00;43.99;;
70454;Laerm;57915;47.174;14.680;2023-07-20T00:34:25;55.37;38.30;69.02;;
70454;Laerm;57915;47.174;14.680;2023-07-20T00:35:26;43.71;40.31;46.72;;
70454;Laerm;57915;47.174;14.680;2023-07-20T00:36:27;49.25;40.01;55.01;;
70454;Laerm;57915;47.174;14.680;2023-07-20T00:37:28;40.17;37.31;44.63;;
70454;Laerm;57915;47.174;14.680;2023-07-20T00:38:29;40.93;37.65;43.28;;
70454;Laerm;57915;47.174;14.680;2023-07-20T00:39:30;40.90;38.69;43.85;;
70454;Laerm;57915;47.174;14.680;2023-07-20T00:40:36;42.00;38.56;45.86;;
70454;Laerm;57915;47.174;14.680;2023-07-20T00:41:38;42.08;39.30;45.18;;
70454;Laerm;57915;47.174;14.680;2023-07-20T00:42:38;40.39;38.16;42.77;;
70454;Laerm;57915;47.174;14.680;2023-07-20T00:43:40;40.64;37.73;43.26;;
70454;Laerm;57915;47.174;14.680;2023-07-20T00:44:40;41.35;38.51;44.01;;
70454;Laerm;57915;47.174;14.680;2023-07-20T00:45:42;40.55;37.72;47.37;;
70454;Laerm;57915;47.174;14.680;2023-07-20T00:46:42;41.34;38.46;45.76;;
70454;Laerm;57915;47.174;14.680;2023-07-20T00:47:44;57.76;41.69;69.39;;
70454;Laerm;57915;47.174;14.680;2023-07-20T00:48:45;42.28;38.98;45.65;;
70454;Laerm;57915;47.174;14.680;2023-07-20T00:49:46;42.68;39.47;46.39;;
70454;Laerm;57915;47.174;14.680;2023-07-20T00:50:47;41.53;38.84;45.43;;
70454;Laerm;57915;47.174;14.680;2023-07-20T00:51:48;43.14;38.69;48.72;;
70454;Laerm;57915;47.174;14.680;2023-07-20T00:52:50;40.83;37.37;49.24;;
70454;Laerm;57915;47.174;14.680;2023-07-20T00:53:51;41.18;38.04;49.71;;
70454;Laerm;57915;47.174;14.680;2023-07-20T00:54:52;42.92;39.64;61.05;;
70454;Laerm;57915;47.174;14.680;2023-07-20T00:55:57;41.88;38.86;44.98;;
70454;Laerm;57915;47.174;14.680;2023-07-20T00:56:59;41.78;38.62;45.31;;
70454;Laerm;57915;47.174;14.680;2023-07-20T00:58:01;42.55;39.33;52.12;;
70454;Laerm;57915;47.174;14.680;2023-07-20T00:59:02;42.99;37.93;59.07;;
70454;Laerm;57915;47.174;14.680;2023-07-20T01:00:03;41.80;38.66;46.74;;
70454;Laerm;57915;47.174;14.680;2023-07-20T01:01:05;44.42;41.16;53.22;;
70454;Laerm;57915;47.174;14.680;2023-07-20T01:02:05;49.66;41.83;56.44;;
70454;Laerm;57915;47.174;14.680;2023-07-20T01:03:07;43.89;39.83;52.46;;
70454;Laerm;57915;47.174;14.680;2023-07-20T01:04:07;42.41;39.00;54.04;;
70454;Laerm;57915;47.174;14.680;2023-07-20T01:05:08;42.26;38.31;49.72;;
70454;Laerm;57915;47.174;14.680;2023-07-20T01:06:14;42.29;39.30;50.60;;
70454;Laerm;57915;47.174;14.680;2023-07-20T01:07:21;41.65;38.39;45.45;;
70454;Laerm;57915;47.174;14.680;2023-07-20T01:08:24;42.46;38.93;47.37;;
70454;Laerm;57915;47.174;14.680;2023-07-20T01:09:34;42.57;38.98;45.61;;
70454;Laerm;57915;47.174;14.680;2023-07-20T01:10:40;41.19;38.46;46.59;;
70454;Laerm;57915;47.174;14.680;2023-07-20T01:11:46;42.80;38.84;46.22;;
70454;Laerm;57915;47.174;14.680;2023-07-20T01:12:52;42.77;38.14;51.92;;
70454;Laerm;57915;47.174;14.680;2023-07-20T01:13:53;41.09;37.05;47.39;;
70454;Laerm;57915;47.174;14.680;2023-07-20T01:14:55;41.23;37.67;46.89;;
70454;Laerm;57915;47.174;14.680;2023-07-20T01:15:56;41.71;38.70;47.60;;
70454;Laerm;57915;47.174;14.680;2023-07-20T01:16:58;42.23;38.55;46.89;;
70454;Laerm;57915;47.174;14.680;2023-07-20T01:17:59;42.82;39.45;45.94;;
70454;Laerm;57915;47.174;14.680;2023-07-20T01:19:01;43.25;40.15;49.13;;
70454;Laerm;57915;47.174;14.680;2023-07-20T01:20:03;43.42;39.09;47.43;;
70454;Laerm;57915;47.174;14.680;2023-07-20T01:21:05;42.34;38.91;45.76;;
70454;Laerm;57915;47.174;14.680;2023-07-20T01:22:09;41.84;39.06;46.84;;
70454;Laerm;57915;47.174;14.680;2023-07-20T01:23:30;40.25;37.33;48.17;;
70454;Laerm;57915;47.174;14.680;2023-07-20T01:24:40;41.32;37.81;44.23;;
70454;Laerm;57915;47.174;14.680;2023-07-20T01:25:51;41.68;38.64;45.43;;
70454;Laerm;57915;47.174;14.680;2023-07-20T01:29:39;39.97;37.65;44.88;;
70454;Laerm;57915;47.174;14.680;2023-07-20T01:30:55;40.33;37.27;47.44;;
70454;Laerm;57915;47.174;14.680;2023-07-20T01:31:57;40.30;37.32;44.97;;
70454;Laerm;57915;47.174;14.680;2023-07-20T01:32:59;40.70;37.93;44.21;;
70454;Laerm;57915;47.174;14.680;2023-07-20T01:34:01;40.67;38.29;43.07;;
70454;Laerm;57915;47.174;14.680;2023-07-20T01:35:04;42.40;38.88;45.87;;
70454;Laerm;57915;47.174;14.680;2023-07-20T01:36:05;42.20;38.70;45.75;;
70454;Laerm;57915;47.174;14.680;2023-07-20T01:37:08;42.45;38.85;46.80;;
70454;Laerm;57915;47.174;14.680;2023-07-20T01:38:09;42.37;39.38;45.83;;
70454;Laerm;57915;47.174;14.680;2023-07-20T01:39:11;42.31;38.62;46.80;;
70454;Laerm;57915;47.174;14.680;2023-07-20T01:40:12;41.43;37.93;44.58;;
70454;Laerm;57915;47.174;14.680;2023-07-20T01:41:14;42.99;38.77;52.41;;
70454;Laerm;57915;47.174;14.680;2023-07-20T01:42:15;43.13;38.19;56.78;;
70454;Laerm;57915;47.174;14.680;2023-07-20T01:43:15;41.81;39.04;45.56;;
70454;Laerm;57915;47.174;14.680;2023-07-20T01:44:17;42.38;39.22;46.15;;
70454;Laerm;57915;47.174;14.680;2023-07-20T01:45:18;41.03;38.25;43.90;;
70454;Laerm;57915;47.174;14.680;2023-07-20T01:46:19;40.96;38.02;43.94;;
70454;Laerm;57915;47.174;14.680;2023-07-20T01:47:21;40.69;37.89;46.60;;
70454;Laerm;57915;47.174;14.680;2023-07-20T01:48:23;40.59;38.19;43.07;;
70454;Laerm;57915;47.174;14.680;2023-07-20T01:49:23;58.97;40.26;69.51;;
70454;Laerm;57915;47.174;14.680;2023-07-20T01:50:25;43.36;40.44;46.62;;
70454;Laerm;57915;47.174;14.680;2023-07-20T01:51:25;41.60;37.40;46.01;;
70454;Laerm;57915;47.174;14.680;2023-07-20T01:52:26;40.10;37.24;44.53;;
70454;Laerm;57915;47.174;14.680;2023-07-20T01:53:27;41.71;38.34;46.31;;
70454;Laerm;57915;47.174;14.680;2023-07-20T01:54:28;45.91;39.77;55.66;;
70454;Laerm;57915;47.174;14.680;2023-07-20T01:55:29;43.00;40.04;49.15;;
70454;Laerm;57915;47.174;14.680;2023-07-20T01:56:30;43.85;40.66;48.24;;
70454;Laerm;57915;47.174;14.680;2023-07-20T01:57:31;46.82;41.81;55.91;;
70454;Laerm;57915;47.174;14.680;2023-07-20T01:58:32;58.94;38.74;72.11;;
70454;Laerm;57915;47.174;14.680;2023-07-20T01:59:33;40.48;37.61;43.23;;
70454;Laerm;57915;47.174;14.680;2023-07-20T02:00:33;41.33;38.24;43.77;;
70454;Laerm;57915;47.174;14.680;2023-07-20T02:01:35;40.32;37.65;47.60;;
70454;Laerm;57915;47.174;14.680;2023-07-20T02:02:36;40.53;37.45;46.41;;
70454;Laerm;57915;47.174;14.680;2023-07-20T02:03:38;41.59;38.70;53.63;;
70454;Laerm;57915;47.174;14.680;2023-07-20T02:04:38;57.75;37.88;70.25;;
70454;Laerm;57915;47.174;14.680;2023-07-20T02:05:41;57.23;38.75;69.53;;
70454;Laerm;57915;47.174;14.680;2023-07-20T02:06:42;48.50;40.23;63.79;;
70454;Laerm;57915;47.174;14.680;2023-07-20T02:07:43;43.13;40.35;46.26;;
70454;Laerm;57915;47.174;14.680;2023-07-20T02:08:44;57.74;38.48;71.77;;
70454;Laerm;57915;47.174;14.680;2023-07-20T02:09:45;59.27;39.60;72.63;;
70454;Laerm;57915;47.174;14.680;2023-07-20T02:10:46;56.79;39.64;68.50;;
70454;Laerm;57915;47.174;14.680;2023-07-20T02:11:48;42.12;39.36;45.14;;
70454;Laerm;57915;47.174;14.680;2023-07-20T02:12:48;54.73;38.82;67.34;;
70454;Laerm;57915;47.174;14.680;2023-07-20T02:13:50;56.16;39.37;69.43;;
70454;Laerm;57915;47.174;14.680;2023-07-20T02:14:50;44.25;40.33;50.95;;
70454;Laerm;57915;47.174;14.680;2023-07-20T02:15:51;40.74;38.14;43.48;;
70454;Laerm;57915;47.174;14.680;2023-07-20T02:16:52;41.31;38.30;45.77;;
70454;Laerm;57915;47.174;14.680;2023-07-20T02:17:59;54.88;37.51;67.17;;
70454;Laerm;57915;47.174;14.680;2023-07-20T02:18:59;39.36;36.93;42.38;;
70454;Laerm;57915;47.174;14.680;2023-07-20T02:20:00;43.01;38.84;47.54;;
70454;Laerm;57915;47.174;14.680;2023-07-20T02:21:01;49.05;41.30;55.82;;
70454;Laerm;57915;47.174;14.680;2023-07-20T02:22:02;42.00;38.40;49.77;;
70454;Laerm;57915;47.174;14.680;2023-07-20T02:23:03;42.28;38.48;48.09;;
70454;Laerm;57915;47.174;14.680;2023-07-20T02:24:04;42.84;39.02;46.37;;
70454;Laerm;57915;47.174;14.680;2023-07-20T02:25:05;42.92;39.82;45.55;;
70454;Laerm;57915;47.174;14.680;2023-07-20T02:26:07;42.86;38.86;46.72;;
70454;Laerm;57915;47.174;14.680;2023-07-20T02:27:07;43.17;40.54;47.00;;
70454;Laerm;57915;47.174;14.680;2023-07-20T02:28:09;43.54;40.50;49.16;;
70454;Laerm;57915;47.174;14.680;2023-07-20T02:29:09;56.74;38.86;70.93;;
70454;Laerm;57915;47.174;14.680;2023-07-20T02:30:11;47.15;41.11;55.06;;
70454;Laerm;57915;47.174;14.680;2023-07-20T02:31:12;45.64;40.71;51.25;;
70454;Laerm;57915;47.174;14.680;2023-07-20T02:32:13;56.12;40.37;69.11;;
70454;Laerm;57915;47.174;14.680;2023-07-20T02:33:15;57.14;40.92;71.41;;
70454;Laerm;57915;47.174;14.680;2023-07-20T02:34:17;59.72;40.82;72.07;;
70454;Laerm;57915;47.174;14.680;2023-07-20T02:35:17;57.14;40.80;70.10;;
70454;Laerm;57915;47.174;14.680;2023-07-20T02:36:19;56.25;38.26;69.99;;
70454;Laerm;57915;47.174;14.680;2023-07-20T02:37:19;60.85;39.82;75.88;;
70454;Laerm;57915;47.174;14.680;2023-07-20T02:38:21;52.10;38.78;65.05;;
70454;Laerm;57915;47.174;14.680;2023-07-20T02:39:21;44.17;40.58;49.65;;
70454;Laerm;57915;47.174;14.680;2023-07-20T02:40:23;41.09;37.17;48.23;;
70454;Laerm;57915;47.174;14.680;2023-07-20T02:41:23;55.61;38.18;67.97;;
70454;Laerm;57915;47.174;14.680;2023-07-20T02:42:23;42.72;39.48;51.70;;
70454;Laerm;57915;47.174;14.680;2023-07-20T02:43:26;48.09;40.14;56.67;;
70454;Laerm;57915;47.174;14.680;2023-07-20T02:44:26;55.75;38.35;67.54;;
70454;Laerm;57915;47.174;14.680;2023-07-20T02:45:28;51.25;39.77;65.60;;
70454;Laerm;57915;47.174;14.680;2023-07-20T02:46:28;55.31;40.12;67.47;;
70454;Laerm;57915;47.174;14.680;2023-07-20T02:47:30;43.01;39.39;49.31;;
70454;Laerm;57915;47.174;14.680;2023-07-20T02:48:32;41.40;37.45;45.86;;
70454;Laerm;57915;47.174;14.680;2023-07-20T02:49:34;51.81;40.27;66.27;;
70454;Laerm;57915;47.174;14.680;2023-07-20T02:50:34;42.73;40.05;51.93;;
70454;Laerm;57915;47.174;14.680;2023-07-20T02:51:36;57.53;40.64;67.71;;
70454;Laerm;57915;47.174;14.680;2023-07-20T02:52:37;42.07;38.25;51.09;;
70454;Laerm;57915;47.174;14.680;2023-07-20T02:53:38;42.83;38.68;50.22;;
70454;Laerm;57915;47.174;14.680;2023-07-20T02:54:38;54.15;40.03;67.42;;
70454;Laerm;57915;47.174;14.680;2023-07-20T02:55:40;55.93;40.99;66.97;;
70454;Laerm;57915;47.174;14.680;2023-07-20T02:56:40;56.15;40.31;67.03;;
70454;Laerm;57915;47.174;14.680;2023-07-20T02:57:42;46.04;41.76;51.00;;
70454;Laerm;57915;47.174;14.680;2023-07-20T02:58:42;59.56;39.73;71.29;;
70454;Laerm;57915;47.174;14.680;2023-07-20T02:59:45;43.98;40.29;49.32;;
70454;Laerm;57915;47.174;14.680;2023-07-20T03:00:46;59.67;40.62;69.46;;
70454;Laerm;57915;47.174;14.680;2023-07-20T03:01:48;58.78;39.17;73.03;;
70454;Laerm;57915;47.174;14.680;2023-07-20T03:02:48;53.72;39.73;66.47;;
70454;Laerm;57915;47.174;14.680;2023-07-20T03:03:56;55.54;38.76;69.00;;
70454;Laerm;57915;47.174;14.680;2023-07-20T03:04:57;53.28;38.71;67.51;;
70454;Laerm;57915;47.174;14.680;2023-07-20T03:06:01;57.18;40.94;68.40;;
70454;Laerm;57915;47.174;14.680;2023-07-20T03:07:02;47.58;39.59;62.79;;
70454;Laerm;57915;47.174;14.680;2023-07-20T03:08:04;54.55;40.75;68.60;;
70454;Laerm;57915;47.174;14.680;2023-07-20T03:09:06;56.93;40.01;67.83;;
70454;Laerm;57915;47.174;14.680;2023-07-20T03:10:09;57.86;41.73;67.88;;
70454;Laerm;57915;47.174;14.680;2023-07-20T03:11:10;58.22;40.72;70.63;;
70454;Laerm;57915;47.174;14.680;2023-07-20T03:12:11;62.08;40.64;74.62;;
70454;Laerm;57915;47.174;14.680;2023-07-20T03:13:12;61.03;41.20;72.94;;
70454;Laerm;57915;47.174;14.680;2023-07-20T03:14:14;57.92;42.23;68.19;;
70454;Laerm;57915;47.174;14.680;2023-07-20T03:15:14;57.88;41.82;70.17;;
70454;Laerm;57915;47.174;14.680;2023-07-20T03:16:17;57.44;41.82;68.22;;
70454;Laerm;57915;47.174;14.680;2023-07-20T03:17:18;62.33;49.31;71.57;;
70454;Laerm;57915;47.174;14.680;2023-07-20T03:18:20;58.33;42.46;70.07;;
70454;Laerm;57915;47.174;14.680;2023-07-20T03:19:22;59.39;40.96;70.65;;
70454;Laerm;57915;47.174;14.680;2023-07-20T03:20:23;56.33;41.12;69.03;;
70454;Laerm;57915;47.174;14.680;2023-07-20T03:21:24;59.49;39.89;69.65;;
70454;Laerm;57915;47.174;14.680;2023-07-20T03:22:25;60.51;40.29;70.44;;
70454;Laerm;57915;47.174;14.680;2023-07-20T03:23:26;57.89;41.43;70.45;;
70454;Laerm;57915;47.174;14.680;2023-07-20T03:24:27;59.38;42.74;68.55;;
70454;Laerm;57915;47.174;14.680;2023-07-20T03:25:28;61.35;42.40;70.32;;
70454;Laerm;57915;47.174;14.680;2023-07-20T03:26:29;59.17;42.01;69.41;;
70454;Laerm;57915;47.174;14.680;2023-07-20T03:27:29;52.70;41.81;66.60;;
70454;Laerm;57915;47.174;14.680;2023-07-20T03:28:31;56.65;43.06;67.35;;
70454;Laerm;57915;47.174;14.680;2023-07-20T03:29:31;58.18;45.09;69.18;;
70454;Laerm;57915;47.174;14.680;2023-07-20T03:30:33;61.14;42.97;73.05;;
70454;Laerm;57915;47.174;14.680;2023-07-20T03:31:34;61.57;44.14;71.81;;
70454;Laerm;57915;47.174;14.680;2023-07-20T03:32:36;54.81;42.30;66.25;;
70454;Laerm;57915;47.174;14.680;2023-07-20T03:33:36;61.06;42.02;71.04;;
70454;Laerm;57915;47.174;14.680;2023-07-20T03:34:39;61.09;43.92;69.71;;
70454;Laerm;57915;47.174;14.680;2023-07-20T03:35:42;57.14;43.46;68.50;;
70454;Laerm;57915;47.174;14.680;2023-07-20T03:36:43;60.78;41.91;70.71;;
70454;Laerm;57915;47.174;14.680;2023-07-20T03:37:45;61.56;41.90;72.80;;
70454;Laerm;57915;47.174;14.680;2023-07-20T03:38:45;62.27;42.82;71.43;;
70454;Laerm;57915;47.174;14.680;2023-07-20T03:39:47;63.44;44.12;71.87;;
70454;Laerm;57915;47.174;14.680;2023-07-20T03:40:50;60.53;42.26;70.57;;
70454;Laerm;57915;47.174;14.680;2023-07-20T03:41:52;58.61;41.68;69.94;;
70454;Laerm;57915;47.174;14.680;2023-07-20T03:42:52;56.70;42.90;65.51;;
70454;Laerm;57915;47.174;14.680;2023-07-20T03:43:53;62.82;41.75;74.23;;
70454;Laerm;57915;47.174;14.680;2023-07-20T03:44:54;62.12;44.56;70.01;;
70454;Laerm;57915;47.174;14.680;2023-07-20T03:45:56;57.56;43.50;66.94;;
70454;Laerm;57915;47.174;14.680;2023-07-20T03:46:56;58.27;42.25;70.37;;
70454;Laerm;57915;47.174;14.680;2023-07-20T03:47:58;49.62;40.99;61.38;;
70454;Laerm;57915;47.174;14.680;2023-07-20T03:48:58;56.24;42.09;66.11;;
70454;Laerm;57915;47.174;14.680;2023-07-20T03:50:01;56.28;42.96;67.43;;
70454;Laerm;57915;47.174;14.680;2023-07-20T03:51:01;59.72;43.10;67.87;;
70454;Laerm;57915;47.174;14.680;2023-07-20T03:52:03;53.09;45.76;65.61;;
70454;Laerm;57915;47.174;14.680;2023-07-20T03:53:04;60.65;43.03;72.66;;
70454;Laerm;57915;47.174;14.680;2023-07-20T03:54:06;59.01;42.51;69.27;;
70454;Laerm;57915;47.174;14.680;2023-07-20T03:55:06;57.54;40.12;70.30;;
70454;Laerm;57915;47.174;14.680;2023-07-20T03:56:08;52.10;42.45;62.44;;
70454;Laerm;57915;47.174;14.680;2023-07-20T03:57:08;57.06;42.18;71.13;;
70454;Laerm;57915;47.174;14.680;2023-07-20T03:58:10;58.32;44.33;68.07;;
70454;Laerm;57915;47.174;14.680;2023-07-20T03:59:11;46.03;42.37;59.06;;
70454;Laerm;57915;47.174;14.680;2023-07-20T04:00:13;58.03;41.90;69.55;;
70454;Laerm;57915;47.174;14.680;2023-07-20T04:01:14;57.24;43.31;69.33;;
70454;Laerm;57915;47.174;14.680;2023-07-20T04:02:16;55.72;41.56;69.60;;
70454;Laerm;57915;47.174;14.680;2023-07-20T04:03:17;59.42;42.03;72.03;;
70454;Laerm;57915;47.174;14.680;2023-07-20T04:04:19;52.98;42.47;70.29;;
70454;Laerm;57915;47.174;14.680;2023-07-20T04:05:21;46.49;42.59;51.80;;
70454;Laerm;57915;47.174;14.680;2023-07-20T04:06:23;60.47;42.31;70.84;;
70454;Laerm;57915;47.174;14.680;2023-07-20T04:07:23;56.78;44.23;73.86;;
70454;Laerm;57915;47.174;14.680;2023-07-20T04:08:24;57.90;43.11;72.34;;
70454;Laerm;57915;47.174;14.680;2023-07-20T04:09:25;56.44;41.53;69.27;;
70454;Laerm;57915;47.174;14.680;2023-07-20T04:10:26;55.77;43.93;67.31;;
70454;Laerm;57915;47.174;14.680;2023-07-20T04:11:27;60.94;45.39;71.73;;
70454;Laerm;57915;47.174;14.680;2023-07-20T04:12:27;62.99;43.69;71.18;;
70454;Laerm;57915;47.174;14.680;2023-07-20T04:13:29;45.72;41.30;52.63;;
70454;Laerm;57915;47.174;14.680;2023-07-20T04:14:33;58.30;41.36;70.24;;
70454;Laerm;57915;47.174;14.680;2023-07-20T04:15:34;61.70;43.98;71.00;;
70454;Laerm;57915;47.174;14.680;2023-07-20T04:16:35;46.35;41.17;61.46;;
70454;Laerm;57915;47.174;14.680;2023-07-20T04:17:37;57.30;42.83;68.32;;
70454;Laerm;57915;47.174;14.680;2023-07-20T04:18:37;46.39;41.86;56.91;;
70454;Laerm;57915;47.174;14.680;2023-07-20T04:19:39;62.70;42.88;71.90;;
70454;Laerm;57915;47.174;14.680;2023-07-20T04:20:41;61.17;41.54;72.09;;
70454;Laerm;57915;47.174;14.680;2023-07-20T04:21:42;62.78;43.26;73.00;;
70454;Laerm;57915;47.174;14.680;2023-07-20T04:22:43;44.47;41.10;52.92;;
70454;Laerm;57915;47.174;14.680;2023-07-20T04:23:44;54.92;41.04;68.14;;
70454;Laerm;57915;47.174;14.680;2023-07-20T04:24:45;59.35;41.31;68.79;;
70454;Laerm;57915;47.174;14.680;2023-07-20T04:25:47;54.02;40.67;65.54;;
70454;Laerm;57915;47.174;14.680;2023-07-20T04:26:47;62.98;45.29;73.13;;
70454;Laerm;57915;47.174;14.680;2023-07-20T04:27:48;57.24;43.08;68.69;;
70454;Laerm;57915;47.174;14.680;2023-07-20T04:28:49;53.53;41.28;66.00;;
70454;Laerm;57915;47.174;14.680;2023-07-20T04:29:52;51.14;42.21;62.50;;
70454;Laerm;57915;47.174;14.680;2023-07-20T04:30:53;58.97;44.79;69.55;;
70454;Laerm;57915;47.174;14.680;2023-07-20T04:31:54;47.98;40.87;59.47;;
70454;Laerm;57915;47.174;14.680;2023-07-20T04:32:55;60.12;42.39;70.79;;
70454;Laerm;57915;47.174;14.680;2023-07-20T04:33:56;59.36;44.21;68.56;;
70454;Laerm;57915;47.174;14.680;2023-07-20T04:34:57;58.94;43.60;67.41;;
70454;Laerm;57915;47.174;14.680;2023-07-20T04:35:59;61.73;44.33;70.46;;
70454;Laerm;57915;47.174;14.680;2023-07-20T04:37:00;52.99;42.94;65.46;;
70454;Laerm;57915;47.174;14.680;2023-07-20T04:38:01;59.61;44.71;70.07;;
70454;Laerm;57915;47.174;14.680;2023-07-20T04:39:02;56.07;42.58;68.25;;
70454;Laerm;57915;47.174;14.680;2023-07-20T04:40:05;60.63;42.97;70.64;;
70454;Laerm;57915;47.174;14.680;2023-07-20T04:41:06;58.84;42.88;70.08;;
70454;Laerm;57915;47.174;14.680;2023-07-20T04:42:07;60.17;43.63;68.24;;
70454;Laerm;57915;47.174;14.680;2023-07-20T04:43:08;49.41;42.99;60.19;;
70454;Laerm;57915;47.174;14.680;2023-07-20T04:44:09;55.79;44.93;65.43;;
70454;Laerm;57915;47.174;14.680;2023-07-20T04:45:10;60.71;41.74;70.02;;
70454;Laerm;57915;47.174;14.680;2023-07-20T04:46:10;59.45;40.70;71.83;;
70454;Laerm;57915;47.174;14.680;2023-07-20T04:47:12;60.82;43.89;68.86;;
70454;Laerm;57915;47.174;14.680;2023-07-20T04:48:13;63.55;47.05;75.43;;
70454;Laerm;57915;47.174;14.680;2023-07-20T04:49:13;58.75;44.00;72.05;;
70454;Laerm;57915;47.174;14.680;2023-07-20T04:50:15;54.61;43.18;71.13;;
70454;Laerm;57915;47.174;14.680;2023-07-20T04:51:17;59.05;40.29;72.31;;
70454;Laerm;57915;47.174;14.680;2023-07-20T04:52:20;63.35;40.74;73.36;;
70454;Laerm;57915;47.174;14.680;2023-07-20T04:53:21;56.82;40.98;68.94;;
70454;Laerm;57915;47.174;14.680;2023-07-20T04:54:23;62.78;43.75;73.16;;
70454;Laerm;57915;47.174;14.680;2023-07-20T04:55:23;58.08;41.33;72.28;;
70454;Laerm;57915;47.174;14.680;2023-07-20T04:56:23;44.68;40.66;50.90;;
70454;Laerm;57915;47.174;14.680;2023-07-20T04:57:25;57.79;42.45;67.08;;
70454;Laerm;57915;47.174;14.680;2023-07-20T04:58:25;60.34;44.03;69.32;;
70454;Laerm;57915;47.174;14.680;2023-07-20T04:59:27;54.62;39.07;66.53;;
70454;Laerm;57915;47.174;14.680;2023-07-20T05:00:27;50.86;39.46;66.02;;
70454;Laerm;57915;47.174;14.680;2023-07-20T05:01:28;59.50;42.38;68.37;;
70454;Laerm;57915;47.174;14.680;2023-07-20T05:02:29;57.80;41.69;67.94;;
70454;Laerm;57915;47.174;14.680;2023-07-20T05:03:30;47.81;39.22;60.08;;
70454;Laerm;57915;47.174;14.680;2023-07-20T05:04:31;60.34;39.10;72.07;;
70454;Laerm;57915;47.174;14.680;2023-07-20T05:05:32;60.84;39.28;69.24;;
70454;Laerm;57915;47.174;14.680;2023-07-20T05:06:34;53.94;40.64;66.86;;
70454;Laerm;57915;47.174;14.680;2023-07-20T05:07:36;60.71;43.21;70.52;;
70454;Laerm;57915;47.174;14.680;2023-07-20T05:08:36;58.30;42.68;69.64;;
70454;Laerm;57915;47.174;14.680;2023-07-20T05:09:38;62.90;45.77;72.13;;
70454;Laerm;57915;47.174;14.680;2023-07-20T05:10:39;60.03;42.39;69.21;;
70454;Laerm;57915;47.174;14.680;2023-07-20T05:11:40;60.16;41.63;73.17;;
70454;Laerm;57915;47.174;14.680;2023-07-20T05:12:41;56.76;43.58;66.14;;
70454;Laerm;57915;47.174;14.680;2023-07-20T05:13:41;55.77;42.32;66.38;;
70454;Laerm;57915;47.174;14.680;2023-07-20T05:14:43;57.65;42.79;68.58;;
70454;Laerm;57915;47.174;14.680;2023-07-20T05:15:43;46.19;41.96;56.20;;
70454;Laerm;57915;47.174;14.680;2023-07-20T05:16:44;60.62;43.03;70.22;;
70454;Laerm;57915;47.174;14.680;2023-07-20T05:17:45;61.64;46.45;68.52;;
70454;Laerm;57915;47.174;14.680;2023-07-20T05:18:48;46.47;42.26;56.40;;
70454;Laerm;57915;47.174;14.680;2023-07-20T05:19:49;59.27;42.03;69.08;;
70454;Laerm;57915;47.174;14.680;2023-07-20T05:20:50;59.70;46.62;68.17;;
70454;Laerm;57915;47.174;14.680;2023-07-20T05:21:52;64.25;43.61;77.09;;
70454;Laerm;57915;47.174;14.680;2023-07-20T05:22:54;60.09;41.64;70.01;;
70454;Laerm;57915;47.174;14.680;2023-07-20T05:23:54;60.67;43.49;70.09;;
70454;Laerm;57915;47.174;14.680;2023-07-20T05:24:56;60.32;43.87;71.79;;
70454;Laerm;57915;47.174;14.680;2023-07-20T05:25:56;56.98;41.58;69.34;;
70454;Laerm;57915;47.174;14.680;2023-07-20T05:26:58;55.87;41.07;69.08;;
70454;Laerm;57915;47.174;14.680;2023-07-20T05:27:58;62.13;43.11;71.18;;
70454;Laerm;57915;47.174;14.680;2023-07-20T05:28:59;57.41;40.75;66.94;;
70454;Laerm;57915;47.174;14.680;2023-07-20T05:30:00;57.03;42.05;66.78;;
70454;Laerm;57915;47.174;14.680;2023-07-20T05:31:02;54.52;40.30;64.13;;
70454;Laerm;57915;47.174;14.680;2023-07-20T05:32:04;56.57;40.68;66.83;;
70454;Laerm;57915;47.174;14.680;2023-07-20T05:33:06;61.36;45.81;71.16;;
70454;Laerm;57915;47.174;14.680;2023-07-20T05:34:08;61.68;41.93;71.53;;
70454;Laerm;57915;47.174;14.680;2023-07-20T05:35:08;61.41;42.64;70.62;;
70454;Laerm;57915;47.174;14.680;2023-07-20T05:36:26;58.42;42.73;68.34;;
70454;Laerm;57915;47.174;14.680;2023-07-20T05:37:28;57.33;42.22;66.97;;
70454;Laerm;57915;47.174;14.680;2023-07-20T05:38:29;60.26;48.38;67.57;;
70454;Laerm;57915;47.174;14.680;2023-07-20T05:39:31;61.29;42.56;71.52;;
70454;Laerm;57915;47.174;14.680;2023-07-20T05:40:33;60.91;41.96;69.28;;
70454;Laerm;57915;47.174;14.680;2023-07-20T05:41:33;56.22;42.66;67.16;;
70454;Laerm;57915;47.174;14.680;2023-07-20T05:42:35;59.22;42.21;69.54;;